Time;durP1;ratioP1;P1;durP2;ratioP2;P2;SDS_P1;SDS_P2;PMS_P1;PMS_P2;Temp;Humidity;BMP_temperature;BMP_pressure;BME280_temperature;BME280_humidity;BME280_pressure;Samples;Min_cycle;Max_cycle;Signal;HPM_P1;HPM_P2
2022/08/26 00:00:11;;;;;;;;;;;21.40;48.10;;;;;;463881;255;1266;-49
2022/08/26 00:02:12;;;;;;;;;;;21.40;48.20;;;;;;463894;255;1183;-49
2022/08/26 00:04:14;;;;;;;;;;;21.40;48.20;;;;;;463852;256;1219;-49
2022/08/26 00:06:15;;;;;;;;;;;21.40;48.20;;;;;;464030;255;1129;-49
2022/08/26 00:08:16;;;;;;;;;;;21.40;48.20;;;;;;464005;256;1412;-49
2022/08/26 00:10:18;;;;;;;;;;;21.40;48.20;;;;;;463875;255;1241;-49
2022/08/26 00:12:19;;;;;;;;;;;21.40;48.20;;;;;;463944;255;1187;-49
2022/08/26 00:14:21;;;;;;;;;;;21.40;48.20;;;;;;464020;255;2171;-49
2022/08/26 00:16:22;;;;;;;;;;;21.40;48.20;;;;;;463813;255;1101;-49
2022/08/26 00:18:23;;;;;;;;;;;21.40;48.20;;;;;;464074;255;1238;-49
2022/08/26 00:20:25;;;;;;;;;;;21.40;48.20;;;;;;464002;255;1032;-49
2022/08/26 00:22:26;;;;;;;;;;;21.40;48.20;;;;;;463808;256;1342;-50
2022/08/26 00:24:27;;;;;;;;;;;21.40;48.20;;;;;;464206;255;1103;-49
2022/08/26 00:26:29;;;;;;;;;;;21.40;48.20;;;;;;463802;256;1321;-49
2022/08/26 00:28:30;;;;;;;;;;;21.40;48.20;;;;;;464008;255;1239;-49
2022/08/26 00:30:33;;;;;;;;;;;21.40;48.20;;;;;;463993;255;1204;-49
2022/08/26 00:32:33;;;;;;;;;;;21.40;48.20;;;;;;463786;256;2546;-49
2022/08/26 00:34:34;;;;;;;;;;;21.40;48.20;;;;;;463987;255;2186;-50
2022/08/26 00:36:35;;;;;;;;;;;21.40;48.20;;;;;;463896;256;1198;-49
2022/08/26 00:38:37;;;;;;;;;;;21.40;48.30;;;;;;463980;255;1209;-50
2022/08/26 00:40:38;;;;;;;;;;;21.40;48.30;;;;;;463975;255;1194;-49
2022/08/26 00:42:39;;;;;;;;;;;21.40;48.30;;;;;;463987;255;1419;-50
2022/08/26 00:44:41;;;;;;;;;;;21.40;48.30;;;;;;463942;255;1236;-49
2022/08/26 00:46:42;;;;;;;;;;;21.40;48.30;;;;;;463810;256;1257;-49
2022/08/26 00:48:43;;;;;;;;;;;21.40;48.30;;;;;;464019;255;1200;-49
2022/08/26 00:50:44;;;;;;;;;;;21.40;48.30;;;;;;463999;255;1210;-49
2022/08/26 00:52:46;;;;;;;;;;;21.40;48.20;;;;;;463945;256;1287;-49
2022/08/26 00:54:47;;;;;;;;;;;21.40;48.20;;;;;;464012;255;2175;-49
2022/08/26 00:56:49;;;;;;;;;;;21.40;48.20;;;;;;463920;255;1148;-49
2022/08/26 00:58:50;;;;;;;;;;;21.40;48.30;;;;;;464222;255;1407;-50
2022/08/26 01:00:51;;;;;;;;;;;21.40;48.30;;;;;;464085;255;1523;-50
2022/08/26 01:02:53;;;;;;;;;;;21.40;48.30;;;;;;463815;256;1276;-49
2022/08/26 01:04:54;;;;;;;;;;;21.40;48.30;;;;;;463825;256;2318;-50
2022/08/26 01:06:56;;;;;;;;;;;21.40;48.30;;;;;;463870;255;1290;-49
2022/08/26 01:08:57;;;;;;;;;;;21.40;48.40;;;;;;463830;256;2091;-49
2022/08/26 01:10:58;;;;;;;;;;;21.40;48.40;;;;;;463946;255;1225;-50
2022/08/26 01:12:59;;;;;;;;;;;21.40;48.40;;;;;;463813;255;1337;-50
2022/08/26 01:15:01;;;;;;;;;;;21.40;48.40;;;;;;463936;255;2206;-49
2022/08/26 01:17:02;;;;;;;;;;;21.40;48.30;;;;;;463789;255;1175;-49
2022/08/26 01:19:04;;;;;;;;;;;21.40;48.40;;;;;;463874;255;1238;-49
2022/08/26 01:21:05;;;;;;;;;;;21.40;48.40;;;;;;463801;256;1286;-50
2022/08/26 01:23:07;;;;;;;;;;;21.40;48.30;;;;;;463928;255;1395;-50
2022/08/26 01:25:08;;;;;;;;;;;21.40;48.30;;;;;;463806;256;1215;-50
2022/08/26 01:27:09;;;;;;;;;;;21.40;48.40;;;;;;463779;256;1275;-49
2022/08/26 01:29:11;;;;;;;;;;;21.40;48.40;;;;;;463984;255;1228;-49
2022/08/26 01:31:12;;;;;;;;;;;21.40;48.30;;;;;;463888;255;1535;-50
2022/08/26 01:33:13;;;;;;;;;;;21.40;48.30;;;;;;463864;255;1237;-49
2022/08/26 01:35:15;;;;;;;;;;;21.40;48.40;;;;;;463941;255;2222;-49
2022/08/26 01:37:16;;;;;;;;;;;21.40;48.40;;;;;;463920;255;1272;-49
2022/08/26 01:39:18;;;;;;;;;;;21.40;48.40;;;;;;463828;256;1092;-49
2022/08/26 01:41:19;;;;;;;;;;;21.40;48.40;;;;;;463941;255;1251;-50
2022/08/26 01:43:20;;;;;;;;;;;21.40;48.50;;;;;;464000;255;1235;-49
2022/08/26 01:45:22;;;;;;;;;;;21.30;48.40;;;;;;463907;255;1336;-49
2022/08/26 01:47:23;;;;;;;;;;;21.40;48.50;;;;;;463870;256;1305;-50
2022/08/26 01:49:24;;;;;;;;;;;21.40;48.40;;;;;;464012;255;1206;-50
2022/08/26 01:51:26;;;;;;;;;;;21.40;48.40;;;;;;464008;255;1191;-50
2022/08/26 01:53:27;;;;;;;;;;;21.40;48.40;;;;;;463961;256;1209;-49
2022/08/26 01:55:28;;;;;;;;;;;21.40;48.40;;;;;;463969;256;2221;-49
2022/08/26 01:57:29;;;;;;;;;;;21.40;48.40;;;;;;463752;256;1197;-49
2022/08/26 01:59:31;;;;;;;;;;;21.40;48.50;;;;;;463955;255;1208;-50
2022/08/26 02:01:32;;;;;;;;;;;21.40;48.40;;;;;;463885;256;1191;-49
2022/08/26 02:03:33;;;;;;;;;;;21.40;48.40;;;;;;463987;255;1279;-49
2022/08/26 02:05:35;;;;;;;;;;;21.40;48.40;;;;;;464646;255;1273;-49
2022/08/26 02:07:36;;;;;;;;;;;21.40;48.40;;;;;;464154;256;1272;-49
2022/08/26 02:09:37;;;;;;;;;;;21.40;48.50;;;;;;464189;255;1351;-50
2022/08/26 02:11:39;;;;;;;;;;;21.40;48.40;;;;;;464113;255;1261;-49
2022/08/26 02:13:40;;;;;;;;;;;21.40;48.50;;;;;;463810;256;1516;-49
2022/08/26 02:15:41;;;;;;;;;;;21.40;48.40;;;;;;463911;255;2194;-49
2022/08/26 02:17:43;;;;;;;;;;;21.40;48.50;;;;;;463907;255;1276;-49
2022/08/26 02:19:44;;;;;;;;;;;21.40;48.50;;;;;;463966;255;1606;-50
2022/08/26 02:21:45;;;;;;;;;;;21.40;48.50;;;;;;463961;255;1307;-49
2022/08/26 02:23:47;;;;;;;;;;;21.30;48.40;;;;;;463836;256;1353;-49
2022/08/26 02:25:48;;;;;;;;;;;21.40;48.50;;;;;;464112;256;1238;-50
2022/08/26 02:27:49;;;;;;;;;;;21.40;48.50;;;;;;463836;256;1246;-49
2022/08/26 02:29:51;;;;;;;;;;;21.40;48.50;;;;;;463938;255;1222;-49
2022/08/26 02:31:54;;;;;;;;;;;21.40;48.50;;;;;;464033;255;1238;-49
2022/08/26 02:33:53;;;;;;;;;;;21.40;48.50;;;;;;463958;255;1853;-49
2022/08/26 02:35:55;;;;;;;;;;;21.40;48.50;;;;;;464054;255;1335;-49
2022/08/26 02:37:56;;;;;;;;;;;21.40;48.50;;;;;;463819;256;1185;-50
2022/08/26 02:39:58;;;;;;;;;;;21.40;48.50;;;;;;463971;255;1252;-49
2022/08/26 02:41:59;;;;;;;;;;;21.40;48.50;;;;;;463817;255;1203;-49
2022/08/26 02:44:00;;;;;;;;;;;21.40;48.50;;;;;;463860;255;1213;-49
2022/08/26 02:46:02;;;;;;;;;;;21.40;48.50;;;;;;463964;255;1184;-49
2022/08/26 02:48:04;;;;;;;;;;;21.40;48.50;;;;;;464283;255;1182;-49
2022/08/26 02:50:04;;;;;;;;;;;21.40;48.50;;;;;;464136;255;2402;-49
2022/08/26 02:52:06;;;;;;;;;;;21.40;48.50;;;;;;464188;255;1353;-49
2022/08/26 02:54:07;;;;;;;;;;;21.40;48.50;;;;;;463901;255;2155;-49
2022/08/26 02:56:08;;;;;;;;;;;21.40;48.50;;;;;;463865;255;1174;-49
2022/08/26 02:58:10;;;;;;;;;;;21.40;48.50;;;;;;463837;256;1207;-49
2022/08/26 03:00:13;;;;;;;;;;;21.40;48.60;;;;;;463929;255;1247;-49
2022/08/26 03:02:13;;;;;;;;;;;21.40;48.60;;;;;;463830;255;2192;-49
2022/08/26 03:04:14;;;;;;;;;;;21.40;48.60;;;;;;463898;256;1199;-49
2022/08/26 03:06:16;;;;;;;;;;;21.40;48.60;;;;;;463809;256;1313;-50
2022/08/26 03:08:17;;;;;;;;;;;21.40;48.60;;;;;;464091;255;1233;-49
2022/08/26 03:10:18;;;;;;;;;;;21.40;48.60;;;;;;464370;255;1222;-49
2022/08/26 03:12:20;;;;;;;;;;;21.40;48.60;;;;;;463896;255;1154;-49
2022/08/26 03:14:22;;;;;;;;;;;21.40;48.60;;;;;;463841;256;2182;-49
2022/08/26 03:16:23;;;;;;;;;;;21.40;48.70;;;;;;464110;255;2099;-49
2022/08/26 03:18:24;;;;;;;;;;;21.30;48.60;;;;;;463888;255;1086;-49
2022/08/26 03:20:25;;;;;;;;;;;21.40;48.60;;;;;;464207;255;1077;-49
2022/08/26 03:22:27;;;;;;;;;;;21.40;48.70;;;;;;464123;255;1240;-49
2022/08/26 03:24:28;;;;;;;;;;;21.40;48.60;;;;;;463863;256;1075;-49
2022/08/26 03:26:30;;;;;;;;;;;21.40;48.60;;;;;;463765;256;1255;-49
2022/08/26 03:28:31;;;;;;;;;;;21.40;48.60;;;;;;463992;255;1218;-49
2022/08/26 03:30:43;;;;;;;;;;;21.40;48.60;;;;;;463931;255;1400;-49
2022/08/26 03:32:43;;;;;;;;;;;21.40;48.60;;;;;;463955;255;1825;-49
2022/08/26 03:34:45;;;;;;;;;;;21.40;48.60;;;;;;463928;255;2167;-49
2022/08/26 03:36:46;;;;;;;;;;;21.30;48.60;;;;;;463781;256;1211;-49
2022/08/26 03:38:47;;;;;;;;;;;21.40;48.70;;;;;;463828;256;1499;-49
2022/08/26 03:40:49;;;;;;;;;;;21.40;48.60;;;;;;464111;255;1310;-50
2022/08/26 03:42:50;;;;;;;;;;;21.40;48.70;;;;;;463800;256;1293;-50
2022/08/26 03:44:51;;;;;;;;;;;21.40;48.60;;;;;;463929;255;1239;-49
2022/08/26 03:46:53;;;;;;;;;;;21.40;48.60;;;;;;463950;255;1567;-49
2022/08/26 03:48:54;;;;;;;;;;;21.40;48.60;;;;;;463878;255;1305;-49
2022/08/26 03:50:55;;;;;;;;;;;21.40;48.60;;;;;;463781;256;1187;-48
2022/08/26 03:52:57;;;;;;;;;;;21.40;48.70;;;;;;464015;255;1196;-49
2022/08/26 03:54:58;;;;;;;;;;;21.40;48.70;;;;;;463792;256;2218;-49
2022/08/26 03:56:59;;;;;;;;;;;21.40;48.70;;;;;;463750;256;1234;-50
2022/08/26 03:59:01;;;;;;;;;;;21.40;48.70;;;;;;464109;255;1217;-49
2022/08/26 04:01:02;;;;;;;;;;;21.40;48.70;;;;;;463870;255;1176;-50
2022/08/26 04:03:03;;;;;;;;;;;21.40;48.70;;;;;;463850;255;1363;-49
2022/08/26 04:05:05;;;;;;;;;;;21.40;48.70;;;;;;463817;256;1498;-49
2022/08/26 04:07:06;;;;;;;;;;;21.40;48.70;;;;;;463788;255;1309;-50
2022/08/26 04:09:08;;;;;;;;;;;21.40;48.70;;;;;;464022;255;1194;-49
2022/08/26 04:11:09;;;;;;;;;;;21.40;48.70;;;;;;463900;256;1236;-49
2022/08/26 04:13:11;;;;;;;;;;;21.40;48.70;;;;;;463829;256;1315;-49
2022/08/26 04:15:12;;;;;;;;;;;21.40;48.70;;;;;;463862;255;2199;-49
2022/08/26 04:17:14;;;;;;;;;;;21.40;48.70;;;;;;463791;255;1326;-49
2022/08/26 04:19:15;;;;;;;;;;;21.40;48.70;;;;;;463850;255;1414;-49
2022/08/26 04:21:16;;;;;;;;;;;21.30;48.70;;;;;;463898;255;1338;-49
2022/08/26 04:23:17;;;;;;;;;;;21.30;48.70;;;;;;464425;255;1312;-49
2022/08/26 04:25:19;;;;;;;;;;;21.40;48.70;;;;;;463893;255;1284;-49
2022/08/26 04:27:20;;;;;;;;;;;21.40;48.70;;;;;;463785;256;1283;-49
2022/08/26 04:29:22;;;;;;;;;;;21.40;48.70;;;;;;463867;255;1196;-49
2022/08/26 04:31:25;;;;;;;;;;;21.40;48.70;;;;;;463785;256;2260;-50
2022/08/26 04:33:24;;;;;;;;;;;21.40;48.70;;;;;;463976;255;1448;-49
2022/08/26 04:35:25;;;;;;;;;;;21.40;48.70;;;;;;463978;255;2163;-49
2022/08/26 04:37:27;;;;;;;;;;;21.30;48.60;;;;;;463697;256;1346;-49
2022/08/26 04:39:28;;;;;;;;;;;21.40;48.70;;;;;;464171;255;1411;-49
2022/08/26 04:41:30;;;;;;;;;;;21.40;48.70;;;;;;463923;255;1365;-49
2022/08/26 04:43:31;;;;;;;;;;;21.40;48.70;;;;;;464013;255;1195;-49
2022/08/26 04:45:32;;;;;;;;;;;21.30;48.60;;;;;;463942;255;1242;-49
2022/08/26 04:47:33;;;;;;;;;;;21.40;48.70;;;;;;463834;255;1657;-49
2022/08/26 04:49:36;;;;;;;;;;;21.40;48.70;;;;;;463811;256;1171;-49
2022/08/26 04:51:36;;;;;;;;;;;21.30;48.70;;;;;;463805;255;1499;-49
2022/08/26 04:53:37;;;;;;;;;;;21.40;48.70;;;;;;463798;256;1357;-49
2022/08/26 04:55:39;;;;;;;;;;;21.40;48.70;;;;;;463978;255;2214;-49
2022/08/26 04:57:40;;;;;;;;;;;21.40;48.70;;;;;;463784;256;1253;-50
2022/08/26 04:59:41;;;;;;;;;;;21.40;48.70;;;;;;463897;255;1226;-49
2022/08/26 05:01:43;;;;;;;;;;;21.40;48.70;;;;;;463925;255;1262;-49
2022/08/26 05:03:45;;;;;;;;;;;21.40;48.70;;;;;;463933;255;1207;-49
2022/08/26 05:05:46;;;;;;;;;;;21.40;48.70;;;;;;463857;255;1265;-49
2022/08/26 05:07:47;;;;;;;;;;;21.40;48.70;;;;;;463969;255;1327;-49
2022/08/26 05:09:49;;;;;;;;;;;21.40;48.80;;;;;;463843;255;1091;-49
2022/08/26 05:11:50;;;;;;;;;;;21.40;48.70;;;;;;463789;255;1522;-49
2022/08/26 05:13:51;;;;;;;;;;;21.40;48.80;;;;;;463929;255;1219;-49
2022/08/26 05:15:53;;;;;;;;;;;21.40;48.80;;;;;;463937;255;2183;-49
2022/08/26 05:17:54;;;;;;;;;;;21.40;48.70;;;;;;463858;255;1122;-49
2022/08/26 05:19:55;;;;;;;;;;;21.30;48.70;;;;;;463845;255;1206;-49
2022/08/26 05:21:57;;;;;;;;;;;21.30;48.70;;;;;;463843;255;1183;-49
2022/08/26 05:23:59;;;;;;;;;;;21.40;48.70;;;;;;463992;255;1107;-49
2022/08/26 05:25:59;;;;;;;;;;;21.40;48.70;;;;;;464053;255;1543;-49
2022/08/26 05:28:01;;;;;;;;;;;21.40;48.70;;;;;;464019;255;1230;-49
2022/08/26 05:30:02;;;;;;;;;;;21.40;48.80;;;;;;463862;255;1252;-50
2022/08/26 05:32:04;;;;;;;;;;;21.40;48.80;;;;;;463796;256;1192;-49
2022/08/26 05:34:05;;;;;;;;;;;21.30;48.70;;;;;;463923;255;1169;-49
2022/08/26 05:36:08;;;;;;;;;;;21.40;48.80;;;;;;463891;255;2179;-49
2022/08/26 05:38:08;;;;;;;;;;;21.40;48.80;;;;;;463850;256;2417;-49
2022/08/26 05:40:10;;;;;;;;;;;21.40;48.80;;;;;;464095;255;1160;-49
2022/08/26 05:42:11;;;;;;;;;;;21.40;48.80;;;;;;463871;255;1278;-49
2022/08/26 05:44:12;;;;;;;;;;;21.40;48.80;;;;;;464082;255;1108;-49
2022/08/26 05:46:14;;;;;;;;;;;21.40;48.80;;;;;;464153;255;1240;-49
2022/08/26 05:48:15;;;;;;;;;;;21.40;48.80;;;;;;463837;255;1211;-49
2022/08/26 05:50:20;;;;;;;;;;;21.40;48.70;;;;;;463996;255;1130;-48
2022/08/26 05:52:18;;;;;;;;;;;21.40;48.80;;;;;;463805;255;2379;-49
2022/08/26 05:54:19;;;;;;;;;;;21.40;48.80;;;;;;463831;255;1106;-50
2022/08/26 05:56:23;;;;;;;;;;;21.40;48.90;;;;;;463756;256;2217;-49
2022/08/26 05:58:22;;;;;;;;;;;21.40;48.80;;;;;;463768;256;2164;-48
2022/08/26 06:00:23;;;;;;;;;;;21.40;48.80;;;;;;463893;255;1176;-49
2022/08/26 06:02:24;;;;;;;;;;;21.40;48.90;;;;;;463698;256;1518;-49
2022/08/26 06:04:26;;;;;;;;;;;21.40;49.00;;;;;;463930;255;1345;-49
2022/08/26 06:06:27;;;;;;;;;;;21.40;48.80;;;;;;463735;256;1629;-49
2022/08/26 06:08:28;;;;;;;;;;;21.40;48.60;;;;;;463910;255;1197;-50
2022/08/26 06:10:32;;;;;;;;;;;21.40;48.50;;;;;;463906;256;1189;-49
2022/08/26 06:12:31;;;;;;;;;;;21.40;48.40;;;;;;463976;255;1277;-49
2022/08/26 06:14:34;;;;;;;;;;;21.40;48.30;;;;;;464064;255;1221;-49
2022/08/26 06:16:34;;;;;;;;;;;21.40;48.30;;;;;;463811;255;2213;-49
2022/08/26 06:18:35;;;;;;;;;;;21.40;48.30;;;;;;463940;256;1213;-49
2022/08/26 06:20:42;;;;;;;;;;;21.40;48.10;;;;;;463799;256;1394;-49
2022/08/26 06:27:20;;;;;;;;;;;21.40;48.10;;;;;;463975;257;1243;-49
2022/08/26 06:29:21;;;;;;;;;;;21.40;48.10;;;;;;463831;255;1286;-49
2022/08/26 06:31:23;;;;;;;;;;;21.40;48.10;;;;;;463823;255;1672;-49
2022/08/26 06:33:24;;;;;;;;;;;21.50;48.10;;;;;;463841;256;1230;-49
2022/08/26 06:35:25;;;;;;;;;;;21.40;48.00;;;;;;464012;255;2206;-49
2022/08/26 06:37:27;;;;;;;;;;;21.50;48.00;;;;;;463661;256;1699;-49
2022/08/26 06:39:28;;;;;;;;;;;21.50;48.00;;;;;;463813;255;1311;-49
2022/08/26 06:41:32;;;;;;;;;;;21.50;48.10;;;;;;463826;255;1682;-49
2022/08/26 06:43:32;;;;;;;;;;;21.50;48.00;;;;;;463940;255;2101;-49
2022/08/26 06:45:33;;;;;;;;;;;21.50;48.00;;;;;;464101;255;1200;-49
2022/08/26 06:47:35;;;;;;;;;;;21.50;47.90;;;;;;463711;256;1319;-49
2022/08/26 06:49:36;;;;;;;;;;;21.50;48.00;;;;;;463820;255;1253;-50
2022/08/26 06:51:38;;;;;;;;;;;21.50;47.90;;;;;;463806;255;1112;-49
2022/08/26 06:53:39;;;;;;;;;;;21.50;48.00;;;;;;463823;255;1527;-49
2022/08/26 06:55:40;;;;;;;;;;;21.50;47.90;;;;;;463701;256;2223;-49
2022/08/26 06:57:42;;;;;;;;;;;21.50;47.90;;;;;;463738;256;1223;-49
2022/08/26 06:59:43;;;;;;;;;;;21.40;47.80;;;;;;463641;255;1197;-50
2022/08/26 07:01:44;;;;;;;;;;;21.50;47.90;;;;;;463617;255;1240;-49
2022/08/26 07:03:46;;;;;;;;;;;21.50;47.90;;;;;;463635;256;1170;-49
2022/08/26 07:05:47;;;;;;;;;;;21.40;47.90;;;;;;463701;256;1544;-49
2022/08/26 07:07:49;;;;;;;;;;;21.50;47.90;;;;;;463866;255;1303;-49
2022/08/26 07:09:50;;;;;;;;;;;21.50;47.90;;;;;;463544;256;1289;-50
2022/08/26 07:11:51;;;;;;;;;;;21.50;47.80;;;;;;463590;255;1298;-49
2022/08/26 07:13:53;;;;;;;;;;;21.40;47.80;;;;;;463586;256;1218;-49
2022/08/26 07:15:56;;;;;;;;;;;21.50;47.80;;;;;;463572;255;2213;-49
2022/08/26 07:17:55;;;;;;;;;;;21.50;47.90;;;;;;463633;256;2357;-49
2022/08/26 07:19:56;;;;;;;;;;;21.50;47.90;;;;;;463555;255;1354;-49
2022/08/26 07:21:58;;;;;;;;;;;21.50;47.90;;;;;;463666;255;1204;-50
2022/08/26 07:23:59;;;;;;;;;;;21.50;47.90;;;;;;463692;256;1290;-49
2022/08/26 07:26:00;;;;;;;;;;;21.50;47.80;;;;;;463677;255;1275;-49
2022/08/26 07:28:02;;;;;;;;;;;21.50;47.80;;;;;;463632;255;1241;-49
2022/08/26 07:30:03;;;;;;;;;;;21.50;47.80;;;;;;463693;255;1258;-49
2022/08/26 07:32:05;;;;;;;;;;;21.50;47.80;;;;;;463764;255;1315;-49
2022/08/26 07:34:08;;;;;;;;;;;21.50;47.80;;;;;;463641;256;1426;-49
2022/08/26 07:36:08;;;;;;;;;;;21.50;47.80;;;;;;463699;255;2456;-49
2022/08/26 07:38:09;;;;;;;;;;;21.50;47.80;;;;;;463850;255;1215;-50
2022/08/26 07:40:10;;;;;;;;;;;21.50;47.80;;;;;;463683;256;1293;-49
2022/08/26 07:42:12;;;;;;;;;;;21.50;47.80;;;;;;464094;255;1272;-49
2022/08/26 07:44:14;;;;;;;;;;;21.50;47.80;;;;;;463748;255;1361;-49
2022/08/26 07:46:18;;;;;;;;;;;21.50;47.80;;;;;;464165;255;1199;-50
2022/08/26 07:48:16;;;;;;;;;;;21.50;47.80;;;;;;463570;256;2048;-49
2022/08/26 07:50:18;;;;;;;;;;;21.50;47.80;;;;;;463598;256;1568;-49
2022/08/26 07:52:19;;;;;;;;;;;21.50;47.90;;;;;;463716;255;1354;-49
2022/08/26 07:54:20;;;;;;;;;;;21.50;47.80;;;;;;463532;255;1296;-49
2022/08/26 07:56:22;;;;;;;;;;;21.50;47.80;;;;;;463604;255;2174;-50
2022/08/26 07:58:23;;;;;;;;;;;21.50;47.70;;;;;;463635;255;1240;-49
2022/08/26 08:00:24;;;;;;;;;;;21.50;47.80;;;;;;463556;256;1246;-49
2022/08/26 08:02:26;;;;;;;;;;;21.50;47.80;;;;;;463577;255;1292;-49
2022/08/26 08:04:27;;;;;;;;;;;21.50;47.80;;;;;;463788;255;1248;-49
2022/08/26 08:06:28;;;;;;;;;;;21.50;47.70;;;;;;463880;255;1198;-49
2022/08/26 08:08:30;;;;;;;;;;;21.50;47.90;;;;;;463826;255;1309;-49
2022/08/26 08:10:31;;;;;;;;;;;21.50;47.80;;;;;;462941;256;1273;-50
2022/08/26 08:12:32;;;;;;;;;;;21.50;47.80;;;;;;463848;255;1258;-50
2022/08/26 08:14:36;;;;;;;;;;;21.50;47.80;;;;;;463823;255;1168;-49
2022/08/26 08:16:35;;;;;;;;;;;21.50;47.80;;;;;;463704;255;2207;-49
2022/08/26 08:18:36;;;;;;;;;;;21.50;47.80;;;;;;463890;256;1150;-50
2022/08/26 08:20:38;;;;;;;;;;;21.50;47.70;;;;;;464027;255;1205;-49
2022/08/26 08:22:39;;;;;;;;;;;21.60;47.90;;;;;;463641;255;1150;-49
2022/08/26 08:24:41;;;;;;;;;;;21.50;47.90;;;;;;463827;256;1120;-49
2022/08/26 08:26:42;;;;;;;;;;;21.50;47.80;;;;;;463683;256;2485;-49
2022/08/26 08:28:45;;;;;;;;;;;21.60;47.90;;;;;;463897;255;1224;-49
2022/08/26 08:30:44;;;;;;;;;;;21.50;47.90;;;;;;463646;255;2074;-49
2022/08/26 08:32:46;;;;;;;;;;;21.60;47.90;;;;;;463649;256;1243;-49
2022/08/26 08:34:47;;;;;;;;;;;21.60;47.90;;;;;;463638;256;1242;-49
2022/08/26 08:36:49;;;;;;;;;;;21.50;47.90;;;;;;463387;255;2202;-49
2022/08/26 08:38:50;;;;;;;;;;;21.60;48.00;;;;;;463287;255;1152;-49
2022/08/26 08:40:51;;;;;;;;;;;21.50;48.10;;;;;;463265;255;1292;-49
2022/08/26 08:42:53;;;;;;;;;;;21.50;48.10;;;;;;463289;256;1259;-49
2022/08/26 08:44:54;;;;;;;;;;;21.50;48.20;;;;;;463518;255;1188;-49
2022/08/26 08:46:55;;;;;;;;;;;21.60;48.30;;;;;;463655;255;1208;-49
2022/08/26 08:48:58;;;;;;;;;;;21.50;48.20;;;;;;463647;255;1227;-49
2022/08/26 08:50:58;;;;;;;;;;;21.50;48.20;;;;;;463685;256;1261;-50
2022/08/26 08:52:59;;;;;;;;;;;21.50;48.20;;;;;;463727;255;1239;-50
2022/08/26 08:55:00;;;;;;;;;;;21.60;48.10;;;;;;463632;255;1156;-49
2022/08/26 08:57:02;;;;;;;;;;;21.60;48.10;;;;;;463683;256;2204;-49
2022/08/26 08:59:03;;;;;;;;;;;21.50;48.10;;;;;;463600;255;1191;-49
2022/08/26 09:01:05;;;;;;;;;;;21.50;48.10;;;;;;463752;255;1360;-49
2022/08/26 09:03:06;;;;;;;;;;;21.50;48.10;;;;;;463849;255;1188;-49
2022/08/26 09:05:07;;;;;;;;;;;21.60;48.10;;;;;;463690;255;1190;-49
2022/08/26 09:07:08;;;;;;;;;;;21.50;48.10;;;;;;463746;255;1252;-49
2022/08/26 09:09:10;;;;;;;;;;;21.60;48.10;;;;;;463620;255;1227;-49
2022/08/26 09:11:12;;;;;;;;;;;21.60;48.10;;;;;;463586;255;1231;-49
2022/08/26 09:13:12;;;;;;;;;;;21.50;48.00;;;;;;463630;255;2268;-50
2022/08/26 09:15:14;;;;;;;;;;;21.60;48.10;;;;;;463735;255;1955;-50
2022/08/26 09:17:15;;;;;;;;;;;21.50;48.00;;;;;;463680;255;2215;-50
2022/08/26 09:19:17;;;;;;;;;;;21.60;48.10;;;;;;463715;255;1321;-49
2022/08/26 09:21:18;;;;;;;;;;;21.50;48.10;;;;;;463816;255;2216;-49
2022/08/26 09:23:19;;;;;;;;;;;21.60;48.20;;;;;;463851;255;1170;-49
2022/08/26 09:25:20;;;;;;;;;;;21.60;48.10;;;;;;463548;256;1208;-49
2022/08/26 09:27:22;;;;;;;;;;;21.50;48.10;;;;;;463952;256;1539;-50
2022/08/26 09:29:23;;;;;;;;;;;21.50;48.10;;;;;;464192;255;1173;-49
2022/08/26 09:31:26;;;;;;;;;;;21.60;48.10;;;;;;463823;255;1451;-49
2022/08/26 09:33:26;;;;;;;;;;;21.60;48.10;;;;;;463749;256;1362;-49
2022/08/26 09:35:28;;;;;;;;;;;21.60;48.10;;;;;;463684;256;1273;-49
2022/08/26 09:37:29;;;;;;;;;;;21.60;48.10;;;;;;463626;255;2178;-50
2022/08/26 09:39:37;;;;;;;;;;;21.50;48.00;;;;;;463699;255;1695;-50
2022/08/26 09:41:38;;;;;;;;;;;21.60;48.10;;;;;;463968;255;1549;-49
2022/08/26 09:43:39;;;;;;;;;;;21.60;48.10;;;;;;463734;256;1186;-49
2022/08/26 09:45:41;;;;;;;;;;;21.50;48.10;;;;;;463780;255;1254;-50
2022/08/26 09:47:42;;;;;;;;;;;21.50;48.10;;;;;;463681;255;1239;-49
2022/08/26 09:49:45;;;;;;;;;;;21.60;48.10;;;;;;463698;255;1300;-49
2022/08/26 09:51:45;;;;;;;;;;;21.50;48.10;;;;;;463720;256;2010;-49
2022/08/26 09:53:46;;;;;;;;;;;21.60;48.00;;;;;;463718;255;1544;-49
2022/08/26 09:55:48;;;;;;;;;;;21.60;48.10;;;;;;463644;255;1572;-49
2022/08/26 09:57:49;;;;;;;;;;;21.50;48.10;;;;;;463808;256;2210;-50
2022/08/26 09:59:50;;;;;;;;;;;21.60;48.10;;;;;;464208;255;1214;-49
2022/08/26 10:01:53;;;;;;;;;;;21.60;48.00;;;;;;463855;255;1433;-49
2022/08/26 10:03:53;;;;;;;;;;;21.60;48.10;;;;;;463721;255;2676;-49
2022/08/26 10:05:55;;;;;;;;;;;21.60;48.10;;;;;;463868;255;1291;-50
2022/08/26 10:07:56;;;;;;;;;;;21.60;48.20;;;;;;463677;256;1370;-50
2022/08/26 10:09:57;;;;;;;;;;;21.60;48.10;;;;;;464099;255;1246;-49
2022/08/26 10:11:59;;;;;;;;;;;21.60;48.00;;;;;;464272;255;1398;-50
2022/08/26 10:14:01;;;;;;;;;;;21.60;48.00;;;;;;464055;255;1239;-49
2022/08/26 10:16:02;;;;;;;;;;;21.60;48.10;;;;;;464376;255;1228;-49
2022/08/26 10:18:04;;;;;;;;;;;21.60;48.10;;;;;;464162;255;2167;-49
2022/08/26 10:20:05;;;;;;;;;;;21.60;48.20;;;;;;464084;255;1550;-49
2022/08/26 10:22:06;;;;;;;;;;;21.60;48.10;;;;;;464243;255;1237;-49
2022/08/26 10:24:07;;;;;;;;;;;21.60;48.20;;;;;;464020;256;1263;-49
2022/08/26 10:26:09;;;;;;;;;;;21.60;48.10;;;;;;464306;255;1242;-49
2022/08/26 10:28:10;;;;;;;;;;;21.60;48.00;;;;;;464540;255;1293;-49
2022/08/26 10:30:11;;;;;;;;;;;21.60;48.30;;;;;;464045;255;1269;-50
2022/08/26 10:32:13;;;;;;;;;;;21.60;48.20;;;;;;464184;255;1225;-49
2022/08/26 10:34:14;;;;;;;;;;;21.60;48.10;;;;;;464187;255;1263;-48
2022/08/26 10:38:36;;;;;;;;;;;21.60;48.10;;;;;;463809;256;2201;-50
2022/08/26 10:40:37;;;;;;;;;;;21.60;48.10;;;;;;463965;255;1196;-49
2022/08/26 10:42:39;;;;;;;;;;;21.60;48.10;;;;;;463895;256;1293;-49
2022/08/26 10:44:40;;;;;;;;;;;21.60;48.10;;;;;;463879;255;1290;-50
2022/08/26 10:46:41;;;;;;;;;;;21.60;48.10;;;;;;463923;255;1248;-49
2022/08/26 10:48:43;;;;;;;;;;;21.60;48.20;;;;;;463879;256;1319;-49
2022/08/26 10:50:44;;;;;;;;;;;21.60;48.10;;;;;;463991;255;1252;-49
2022/08/26 10:52:45;;;;;;;;;;;21.60;48.20;;;;;;463867;256;1145;-50
2022/08/26 10:54:53;;;;;;;;;;;21.60;48.20;;;;;;463892;255;1384;-49
2022/08/26 10:56:54;;;;;;;;;;;21.60;48.20;;;;;;463834;255;2167;-49
2022/08/26 10:59:02;;;;;;;;;;;21.60;48.20;;;;;;463988;255;1120;-49
2022/08/26 11:03:23;;;;;;;;;;;21.60;48.20;;;;;;463840;257;1273;-49
2022/08/26 11:05:24;;;;;;;;;;;21.60;48.20;;;;;;463913;255;1557;-49
2022/08/26 11:07:25;;;;;;;;;;;21.60;48.00;;;;;;463652;255;1245;-50
2022/08/26 11:09:27;;;;;;;;;;;21.60;48.20;;;;;;463519;255;1320;-49
2022/08/26 11:11:28;;;;;;;;;;;21.60;48.20;;;;;;463849;255;1614;-49
2022/08/26 11:13:29;;;;;;;;;;;21.60;48.20;;;;;;463907;255;1287;-50
2022/08/26 11:15:31;;;;;;;;;;;21.60;48.20;;;;;;463920;255;1227;-49
2022/08/26 11:17:32;;;;;;;;;;;21.60;48.20;;;;;;464149;255;2178;-50
2022/08/26 11:19:33;;;;;;;;;;;21.60;48.30;;;;;;463662;256;1244;-49
2022/08/26 11:21:35;;;;;;;;;;;21.60;48.30;;;;;;463756;255;1293;-49
2022/08/26 11:23:36;;;;;;;;;;;21.60;48.30;;;;;;463733;255;1286;-49
2022/08/26 11:25:37;;;;;;;;;;;21.60;48.30;;;;;;464121;255;1205;-49
2022/08/26 11:27:40;;;;;;;;;;;21.60;48.40;;;;;;463806;256;1257;-49
2022/08/26 11:29:40;;;;;;;;;;;21.60;48.40;;;;;;463699;256;1449;-49
2022/08/26 11:31:42;;;;;;;;;;;21.60;48.40;;;;;;463638;256;1272;-49
2022/08/26 11:33:44;;;;;;;;;;;21.60;48.40;;;;;;463678;255;1244;-49
2022/08/26 11:35:45;;;;;;;;;;;21.60;48.30;;;;;;463751;256;1648;-48
2022/08/26 11:37:46;;;;;;;;;;;21.60;48.40;;;;;;463708;255;2175;-49
2022/08/26 11:39:47;;;;;;;;;;;21.60;48.40;;;;;;463676;255;1295;-49
2022/08/26 11:41:49;;;;;;;;;;;21.60;48.50;;;;;;463846;255;1225;-49
2022/08/26 11:43:51;;;;;;;;;;;21.60;48.60;;;;;;463707;255;1644;-49
2022/08/26 11:45:52;;;;;;;;;;;21.60;48.60;;;;;;463723;256;1274;-49
2022/08/26 11:47:53;;;;;;;;;;;21.60;48.70;;;;;;463878;255;1309;-49
2022/08/26 11:49:54;;;;;;;;;;;21.60;48.70;;;;;;463938;255;1236;-49
2022/08/26 11:51:55;;;;;;;;;;;21.60;48.80;;;;;;463780;255;1642;-50
2022/08/26 11:53:57;;;;;;;;;;;21.60;48.80;;;;;;463946;255;1192;-49
2022/08/26 11:55:58;;;;;;;;;;;21.60;48.80;;;;;;463856;255;1241;-49
2022/08/26 11:58:00;;;;;;;;;;;21.60;48.60;;;;;;463841;255;2206;-49
2022/08/26 12:00:01;;;;;;;;;;;21.60;48.60;;;;;;463976;255;1701;-50
2022/08/26 12:02:02;;;;;;;;;;;21.60;48.70;;;;;;463848;255;1662;-49
2022/08/26 12:04:04;;;;;;;;;;;21.60;48.60;;;;;;463925;256;1280;-50
2022/08/26 12:06:08;;;;;;;;;;;21.60;48.60;;;;;;463793;255;1649;-49